sensor_id;sensor_type;location;lat;lon;timestamp;pressure;altitude;pressure_sealevel;temperature;humidity
50484;BME280;36409;52.168;20.878;2023-03-01T00:02:03;101873.70;;;-5.76;63.93
50484;BME280;36409;52.168;20.878;2023-03-01T00:04:33;101866.84;;;-5.77;63.53
50484;BME280;36409;52.168;20.878;2023-03-01T00:07:04;101857.67;;;-5.75;63.54
50484;BME280;36409;52.168;20.878;2023-03-01T00:09:33;101860.56;;;-5.70;63.93
50484;BME280;36409;52.168;20.878;2023-03-01T00:12:04;101858.13;;;-5.68;63.55
50484;BME280;36409;52.168;20.878;2023-03-01T00:14:34;101868.41;;;-5.67;63.90
50484;BME280;36409;52.168;20.878;2023-03-01T00:17:04;101860.14;;;-5.64;64.06
50484;BME280;36409;52.168;20.878;2023-03-01T00:19:34;101855.16;;;-5.63;63.64
50484;BME280;36409;52.168;20.878;2023-03-01T00:22:04;101850.94;;;-5.62;64.13
50484;BME280;36409;52.168;20.878;2023-03-01T00:24:34;101850.06;;;-5.63;64.04
50484;BME280;36409;52.168;20.878;2023-03-01T00:27:06;101850.16;;;-5.61;64.19
50484;BME280;36409;52.168;20.878;2023-03-01T00:29:36;101851.17;;;-5.59;63.97
50484;BME280;36409;52.168;20.878;2023-03-01T00:32:06;101851.17;;;-5.59;63.73
50484;BME280;36409;52.168;20.878;2023-03-01T00:34:35;101851.31;;;-5.57;64.25
50484;BME280;36409;52.168;20.878;2023-03-01T00:37:04;101843.78;;;-5.56;63.98
50484;BME280;36409;52.168;20.878;2023-03-01T00:39:35;101835.38;;;-5.55;64.29
50484;BME280;36409;52.168;20.878;2023-03-01T00:42:04;101834.61;;;-5.54;64.31
50484;BME280;36409;52.168;20.878;2023-03-01T00:44:34;101830.52;;;-5.52;64.37
50484;BME280;36409;52.168;20.878;2023-03-01T00:47:05;101838.79;;;-5.54;64.29
50484;BME280;36409;52.168;20.878;2023-03-01T00:49:35;101833.50;;;-5.57;63.93
50484;BME280;36409;52.168;20.878;2023-03-01T00:52:04;101829.27;;;-5.57;64.20
50484;BME280;36409;52.168;20.878;2023-03-01T00:54:34;101830.58;;;-5.62;64.40
50484;BME280;36409;52.168;20.878;2023-03-01T00:57:03;101825.38;;;-5.64;63.98
50484;BME280;36409;52.168;20.878;2023-03-01T00:59:33;101822.84;;;-5.64;64.17
50484;BME280;36409;52.168;20.878;2023-03-01T01:02:03;101820.40;;;-5.62;64.63
50484;BME280;36409;52.168;20.878;2023-03-01T01:04:32;101817.75;;;-5.64;64.50
50484;BME280;36409;52.168;20.878;2023-03-01T01:07:01;101816.87;;;-5.64;64.45
50484;BME280;36409;52.168;20.878;2023-03-01T01:09:30;101818.52;;;-5.65;64.51
50484;BME280;36409;52.168;20.878;2023-03-01T01:11:59;101818.42;;;-5.66;64.60
50484;BME280;36409;52.168;20.878;2023-03-01T01:14:28;101821.73;;;-5.67;64.50
50484;BME280;36409;52.168;20.878;2023-03-01T01:16:57;101816.64;;;-5.67;64.62
50484;BME280;36409;52.168;20.878;2023-03-01T01:19:27;101812.42;;;-5.67;64.56
50484;BME280;36409;52.168;20.878;2023-03-01T01:21:56;101809.25;;;-5.64;65.00
50484;BME280;36409;52.168;20.878;2023-03-01T01:24:26;101799.17;;;-5.63;64.77
50484;BME280;36409;52.168;20.878;2023-03-01T01:26:55;101796.86;;;-5.60;64.72
50484;BME280;36409;52.168;20.878;2023-03-01T01:29:25;101802.95;;;-5.57;64.89
50484;BME280;36409;52.168;20.878;2023-03-01T01:31:54;101799.74;;;-5.55;64.80
50484;BME280;36409;52.168;20.878;2023-03-01T01:34:23;101791.44;;;-5.52;65.00
50484;BME280;36409;52.168;20.878;2023-03-01T01:36:53;101785.69;;;-5.50;64.78
50484;BME280;36409;52.168;20.878;2023-03-01T01:39:23;101780.48;;;-5.51;64.81
50484;BME280;36409;52.168;20.878;2023-03-01T01:41:55;101782.16;;;-5.52;65.21
50484;BME280;36409;52.168;20.878;2023-03-01T01:44:26;101782.03;;;-5.53;65.02
50484;BME280;36409;52.168;20.878;2023-03-01T01:46:58;101785.48;;;-5.53;65.08
50484;BME280;36409;52.168;20.878;2023-03-01T01:49:31;101784.71;;;-5.52;64.95
50484;BME280;36409;52.168;20.878;2023-03-01T01:52:07;101783.80;;;-5.52;65.15
50484;BME280;36409;52.168;20.878;2023-03-01T01:54:44;101778.05;;;-5.50;65.40
50484;BME280;36409;52.168;20.878;2023-03-01T01:57:19;101772.31;;;-5.47;65.22
50484;BME280;36409;52.168;20.878;2023-03-01T01:59:58;101764.78;;;-5.46;65.45
50484;BME280;36409;52.168;20.878;2023-03-01T02:02:29;101771.55;;;-5.46;65.31
50484;BME280;36409;52.168;20.878;2023-03-01T02:05:05;101765.66;;;-5.45;65.25
50484;BME280;36409;52.168;20.878;2023-03-01T02:07:40;101764.78;;;-5.46;65.04
50484;BME280;36409;52.168;20.878;2023-03-01T02:10:11;101764.88;;;-5.44;65.26
50484;BME280;36409;52.168;20.878;2023-03-01T02:12:40;101770.88;;;-5.44;65.43
50484;BME280;36409;52.168;20.878;2023-03-01T02:15:11;101768.33;;;-5.44;65.86
50484;BME280;36409;52.168;20.878;2023-03-01T02:17:41;101769.34;;;-5.41;65.55
50484;BME280;36409;52.168;20.878;2023-03-01T02:20:16;101772.85;;;-5.39;65.22
50484;BME280;36409;52.168;20.878;2023-03-01T02:22:53;101759.35;;;-5.38;65.59
50484;BME280;36409;52.168;20.878;2023-03-01T02:25:37;101773.98;;;-5.36;65.60
50484;BME280;36409;52.168;20.878;2023-03-01T02:28:20;101772.22;;;-5.37;65.85
50484;BME280;36409;52.168;20.878;2023-03-01T02:30:54;101757.04;;;-5.35;65.93
50484;BME280;36409;52.168;20.878;2023-03-01T02:33:42;101762.23;;;-5.34;65.83
50484;BME280;36409;52.168;20.878;2023-03-01T02:36:20;101764.77;;;-5.34;65.51
50484;BME280;36409;52.168;20.878;2023-03-01T02:38:53;101757.27;;;-5.32;65.58
50484;BME280;36409;52.168;20.878;2023-03-01T02:41:26;101759.14;;;-5.30;66.05
50484;BME280;36409;52.168;20.878;2023-03-01T02:43:57;101755.83;;;-5.29;65.61
50484;BME280;36409;52.168;20.878;2023-03-01T02:46:29;101749.05;;;-5.28;65.82
50484;BME280;36409;52.168;20.878;2023-03-01T02:48:59;101749.29;;;-5.25;66.00
50484;BME280;36409;52.168;20.878;2023-03-01T02:51:42;101742.88;;;-5.20;66.16
50484;BME280;36409;52.168;20.878;2023-03-01T02:54:24;101740.33;;;-5.20;66.09
50484;BME280;36409;52.168;20.878;2023-03-01T02:56:57;101749.62;;;-5.20;65.91
50484;BME280;36409;52.168;20.878;2023-03-01T02:59:30;101740.33;;;-5.20;66.29
50484;BME280;36409;52.168;20.878;2023-03-01T03:02:01;101742.98;;;-5.18;66.18
50484;BME280;36409;52.168;20.878;2023-03-01T03:04:31;101746.52;;;-5.16;66.00
50484;BME280;36409;52.168;20.878;2023-03-01T03:07:03;101748.30;;;-5.15;65.81
50484;BME280;36409;52.168;20.878;2023-03-01T03:09:33;101740.76;;;-5.14;66.05
50484;BME280;36409;52.168;20.878;2023-03-01T03:12:02;101732.34;;;-5.13;66.20
50484;BME280;36409;52.168;20.878;2023-03-01T03:14:33;101718.94;;;-5.10;66.31
50484;BME280;36409;52.168;20.878;2023-03-01T03:17:04;101723.38;;;-5.07;66.13
50484;BME280;36409;52.168;20.878;2023-03-01T03:19:35;101729.25;;;-5.08;66.01
50484;BME280;36409;52.168;20.878;2023-03-01T03:22:04;101719.06;;;-5.08;66.27
50484;BME280;36409;52.168;20.878;2023-03-01T03:24:33;101725.03;;;-5.08;66.48
50484;BME280;36409;52.168;20.878;2023-03-01T03:27:07;101714.94;;;-5.06;66.37
50484;BME280;36409;52.168;20.878;2023-03-01T03:29:37;101709.98;;;-5.05;66.61
50484;BME280;36409;52.168;20.878;2023-03-01T03:32:07;101719.48;;;-5.02;66.42
50484;BME280;36409;52.168;20.878;2023-03-01T03:34:36;101706.75;;;-5.02;66.44
50484;BME280;36409;52.168;20.878;2023-03-01T03:37:05;101694.02;;;-5.02;66.19
50484;BME280;36409;52.168;20.878;2023-03-01T03:39:56;101698.43;;;-5.00;66.51
50484;BME280;36409;52.168;20.878;2023-03-01T03:42:27;101700.11;;;-5.00;66.76
50484;BME280;36409;52.168;20.878;2023-03-01T03:44:57;101693.46;;;-4.98;66.88
50484;BME280;36409;52.168;20.878;2023-03-01T03:47:29;101687.69;;;-4.96;66.94
50484;BME280;36409;52.168;20.878;2023-03-01T03:50:04;101693.01;;;-4.92;66.72
50484;BME280;36409;52.168;20.878;2023-03-01T03:52:34;101693.78;;;-4.93;66.60
50484;BME280;36409;52.168;20.878;2023-03-01T03:55:05;101704.84;;;-4.93;66.58
50484;BME280;36409;52.168;20.878;2023-03-01T03:57:40;101700.65;;;-4.92;66.77
50484;BME280;36409;52.168;20.878;2023-03-01T04:00:14;101700.65;;;-4.92;66.79
50484;BME280;36409;52.168;20.878;2023-03-01T04:02:43;101689.78;;;-4.90;66.99
50484;BME280;36409;52.168;20.878;2023-03-01T04:05:15;101685.68;;;-4.88;66.71
50484;BME280;36409;52.168;20.878;2023-03-01T04:07:45;101681.59;;;-4.86;66.67
50484;BME280;36409;52.168;20.878;2023-03-01T04:10:16;101683.45;;;-4.83;66.89
50484;BME280;36409;52.168;20.878;2023-03-01T04:12:46;101687.00;;;-4.81;66.57
50484;BME280;36409;52.168;20.878;2023-03-01T04:15:18;101673.35;;;-4.82;67.06
50484;BME280;36409;52.168;20.878;2023-03-01T04:17:48;101681.99;;;-4.79;67.11
50484;BME280;36409;52.168;20.878;2023-03-01T04:20:19;101676.22;;;-4.77;67.00
50484;BME280;36409;52.168;20.878;2023-03-01T04:23:00;101675.56;;;-4.74;67.33
50484;BME280;36409;52.168;20.878;2023-03-01T04:25:39;101683.30;;;-4.73;67.38
50484;BME280;36409;52.168;20.878;2023-03-01T04:28:09;101692.72;;;-4.72;66.96
50484;BME280;36409;52.168;20.878;2023-03-01T04:30:39;101690.27;;;-4.70;67.19
50484;BME280;36409;52.168;20.878;2023-03-01T04:33:10;101688.03;;;-4.66;67.31
50484;BME280;36409;52.168;20.878;2023-03-01T04:35:41;101684.83;;;-4.63;67.52
50484;BME280;36409;52.168;20.878;2023-03-01T04:38:11;101681.37;;;-4.63;67.07
50484;BME280;36409;52.168;20.878;2023-03-01T04:40:40;101678.15;;;-4.61;67.35
50484;BME280;36409;52.168;20.878;2023-03-01T04:43:11;101678.27;;;-4.59;67.24
50484;BME280;36409;52.168;20.878;2023-03-01T04:45:42;101678.37;;;-4.58;67.38
50484;BME280;36409;52.168;20.878;2023-03-01T04:48:15;101679.36;;;-4.56;67.31
50484;BME280;36409;52.168;20.878;2023-03-01T04:50:44;101673.48;;;-4.55;67.34
50484;BME280;36409;52.168;20.878;2023-03-01T04:53:14;101665.28;;;-4.51;67.49
50484;BME280;36409;52.168;20.878;2023-03-01T04:55:44;101669.69;;;-4.48;67.52
50484;BME280;36409;52.168;20.878;2023-03-01T04:58:16;101655.48;;;-4.44;67.65
50484;BME280;36409;52.168;20.878;2023-03-01T05:00:46;101658.25;;;-4.41;67.53
50484;BME280;36409;52.168;20.878;2023-03-01T05:03:15;101657.47;;;-4.40;67.33
50484;BME280;36409;52.168;20.878;2023-03-01T05:05:48;101656.69;;;-4.39;67.76
50484;BME280;36409;52.168;20.878;2023-03-01T05:08:18;101657.47;;;-4.40;67.72
50484;BME280;36409;52.168;20.878;2023-03-01T05:10:51;101647.45;;;-4.37;67.37
50484;BME280;36409;52.168;20.878;2023-03-01T05:13:22;101645.89;;;-4.35;67.66
50484;BME280;36409;52.168;20.878;2023-03-01T05:15:59;101649.44;;;-4.33;67.39
50484;BME280;36409;52.168;20.878;2023-03-01T05:18:32;101642.66;;;-4.32;67.42
50484;BME280;36409;52.168;20.878;2023-03-01T05:21:05;101646.11;;;-4.32;67.61
50484;BME280;36409;52.168;20.878;2023-03-01T05:23:36;101648.75;;;-4.30;67.86
50484;BME280;36409;52.168;20.878;2023-03-01T05:26:07;101654.75;;;-4.30;67.69
50484;BME280;36409;52.168;20.878;2023-03-01T05:28:58;101659.85;;;-4.30;67.64
50484;BME280;36409;52.168;20.878;2023-03-01T05:31:30;101653.19;;;-4.28;67.63
50484;BME280;36409;52.168;20.878;2023-03-01T05:34:05;101670.23;;;-4.27;67.69
50484;BME280;36409;52.168;20.878;2023-03-01T05:36:35;101669.58;;;-4.24;67.73
50484;BME280;36409;52.168;20.878;2023-03-01T05:39:04;101667.98;;;-4.22;67.67
50484;BME280;36409;52.168;20.878;2023-03-01T05:41:35;101675.84;;;-4.19;67.46
50484;BME280;36409;52.168;20.878;2023-03-01T05:44:06;101684.58;;;-4.15;68.13
50484;BME280;36409;52.168;20.878;2023-03-01T05:46:37;101691.67;;;-4.11;67.92
50484;BME280;36409;52.168;20.878;2023-03-01T05:49:06;101691.97;;;-4.07;68.11
50484;BME280;36409;52.168;20.878;2023-03-01T05:51:36;101699.14;;;-4.01;67.81
50484;BME280;36409;52.168;20.878;2023-03-01T05:54:05;101695.25;;;-3.96;68.00
50484;BME280;36409;52.168;20.878;2023-03-01T05:56:36;101691.52;;;-3.88;67.88
50484;BME280;36409;52.168;20.878;2023-03-01T05:59:06;101692.91;;;-3.79;67.87
50484;BME280;36409;52.168;20.878;2023-03-01T06:01:38;101691.55;;;-3.74;67.90
50484;BME280;36409;52.168;20.878;2023-03-01T06:04:07;101700.58;;;-3.66;67.92
50484;BME280;36409;52.168;20.878;2023-03-01T06:06:38;101687.41;;;-3.59;67.90
50484;BME280;36409;52.168;20.878;2023-03-01T06:09:08;101691.45;;;-3.49;67.94
50484;BME280;36409;52.168;20.878;2023-03-01T06:11:38;101683.39;;;-3.42;67.87
50484;BME280;36409;52.168;20.878;2023-03-01T06:14:08;101689.97;;;-3.32;67.94
50484;BME280;36409;52.168;20.878;2023-03-01T06:16:39;101688.12;;;-3.21;67.94
50484;BME280;36409;52.168;20.878;2023-03-01T06:19:13;101693.88;;;-3.10;68.05
50484;BME280;36409;52.168;20.878;2023-03-01T06:21:42;101685.02;;;-3.02;67.85
50484;BME280;36409;52.168;20.878;2023-03-01T06:24:13;101693.36;;;-2.91;67.88
50484;BME280;36409;52.168;20.878;2023-03-01T06:26:45;101688.89;;;-2.80;68.15
50484;BME280;36409;52.168;20.878;2023-03-01T06:29:14;101690.42;;;-2.69;67.74
50484;BME280;36409;52.168;20.878;2023-03-01T06:31:48;101694.52;;;-2.57;68.20
50484;BME280;36409;52.168;20.878;2023-03-01T06:34:17;101683.27;;;-2.46;68.01
50484;BME280;36409;52.168;20.878;2023-03-01T06:36:47;101683.84;;;-2.37;67.80
50484;BME280;36409;52.168;20.878;2023-03-01T06:39:16;101687.91;;;-2.25;67.92
50484;BME280;36409;52.168;20.878;2023-03-01T06:41:49;101686.05;;;-2.13;67.96
50484;BME280;36409;52.168;20.878;2023-03-01T06:44:26;101691.89;;;-2.00;67.96
50484;BME280;36409;52.168;20.878;2023-03-01T06:47:03;101680.52;;;-1.91;67.79
50484;BME280;36409;52.168;20.878;2023-03-01T06:49:32;101682.80;;;-1.80;67.71
50484;BME280;36409;52.168;20.878;2023-03-01T06:52:01;101692.05;;;-1.67;67.79
50484;BME280;36409;52.168;20.878;2023-03-01T06:54:31;101690.19;;;-1.55;67.86
50484;BME280;36409;52.168;20.878;2023-03-01T06:57:00;101682.23;;;-1.45;67.84
50484;BME280;36409;52.168;20.878;2023-03-01T06:59:30;101674.97;;;-1.37;67.48
50484;BME280;36409;52.168;20.878;2023-03-01T07:02:08;101681.50;;;-1.27;68.00
50484;BME280;36409;52.168;20.878;2023-03-01T07:04:38;101679.50;;;-1.16;67.74
50484;BME280;36409;52.168;20.878;2023-03-01T07:07:07;101676.57;;;-1.07;68.13
50484;BME280;36409;52.168;20.878;2023-03-01T07:09:38;101682.02;;;-1.01;67.81
50484;BME280;36409;52.168;20.878;2023-03-01T07:12:08;101680.84;;;-0.91;67.55
50484;BME280;36409;52.168;20.878;2023-03-01T07:14:37;101684.06;;;-0.79;67.57
50484;BME280;36409;52.168;20.878;2023-03-01T07:17:08;101682.88;;;-0.69;67.47
50484;BME280;36409;52.168;20.878;2023-03-01T07:19:37;101682.13;;;-0.50;67.32
50484;BME280;36409;52.168;20.878;2023-03-01T07:22:06;101680.27;;;-0.20;67.56
50484;BME280;36409;52.168;20.878;2023-03-01T07:24:37;101672.78;;;0.74;66.11
50484;BME280;36409;52.168;20.878;2023-03-01T07:27:06;101675.16;;;2.07;65.46
50484;BME280;36409;52.168;20.878;2023-03-01T07:29:36;101664.86;;;2.94;66.01
50484;BME280;36409;52.168;20.878;2023-03-01T07:32:05;101664.84;;;4.17;65.01
50484;BME280;36409;52.168;20.878;2023-03-01T07:34:35;101656.03;;;5.25;64.78
50484;BME280;36409;52.168;20.878;2023-03-01T07:37:04;101649.59;;;6.45;63.89
50484;BME280;36409;52.168;20.878;2023-03-01T07:39:33;101642.52;;;7.17;63.41
50484;BME280;36409;52.168;20.878;2023-03-01T07:42:02;101643.20;;;7.54;62.73
50484;BME280;36409;52.168;20.878;2023-03-01T07:44:31;101629.92;;;8.42;61.96
50484;BME280;36409;52.168;20.878;2023-03-01T07:47:02;101629.30;;;9.26;60.89
50484;BME280;36409;52.168;20.878;2023-03-01T07:49:32;101623.79;;;9.81;61.97
50484;BME280;36409;52.168;20.878;2023-03-01T07:52:01;101630.41;;;10.50;61.25
50484;BME280;36409;52.168;20.878;2023-03-01T07:54:33;101635.03;;;11.02;58.40
50484;BME280;36409;52.168;20.878;2023-03-01T07:57:03;101644.80;;;11.68;58.34
50484;BME280;36409;52.168;20.878;2023-03-01T07:59:32;101625.61;;;12.55;57.03
50484;BME280;36409;52.168;20.878;2023-03-01T08:02:01;101627.16;;;13.08;56.30
50484;BME280;36409;52.168;20.878;2023-03-01T08:04:31;101628.48;;;13.82;56.09
50484;BME280;36409;52.168;20.878;2023-03-01T08:07:01;101627.11;;;14.39;55.43
50484;BME280;36409;52.168;20.878;2023-03-01T08:09:30;101629.34;;;15.45;54.67
50484;BME280;36409;52.168;20.878;2023-03-01T08:12:00;101625.59;;;16.18;53.40
50484;BME280;36409;52.168;20.878;2023-03-01T08:14:29;101630.55;;;16.36;52.36
50484;BME280;36409;52.168;20.878;2023-03-01T08:16:58;101623.81;;;17.11;51.61
50484;BME280;36409;52.168;20.878;2023-03-01T08:19:27;101625.04;;;16.93;51.61
50484;BME280;36409;52.168;20.878;2023-03-01T08:21:57;101632.69;;;15.56;53.29
50484;BME280;36409;52.168;20.878;2023-03-01T08:24:26;101639.21;;;14.54;53.37
50484;BME280;36409;52.168;20.878;2023-03-01T08:26:59;101642.86;;;13.13;53.03
50484;BME280;36409;52.168;20.878;2023-03-01T08:29:31;101640.44;;;11.72;54.64
50484;BME280;36409;52.168;20.878;2023-03-01T08:32:00;101642.70;;;10.70;54.32
50484;BME280;36409;52.168;20.878;2023-03-01T08:34:30;101638.70;;;9.96;55.27
50484;BME280;36409;52.168;20.878;2023-03-01T08:36:59;101642.38;;;9.27;54.60
50484;BME280;36409;52.168;20.878;2023-03-01T08:39:28;101642.31;;;8.57;54.64
50484;BME280;36409;52.168;20.878;2023-03-01T08:41:58;101655.38;;;8.04;55.27
50484;BME280;36409;52.168;20.878;2023-03-01T08:44:27;101651.38;;;7.75;55.40
50484;BME280;36409;52.168;20.878;2023-03-01T08:46:57;101643.27;;;7.57;55.01
50484;BME280;36409;52.168;20.878;2023-03-01T08:49:26;101643.09;;;7.47;55.25
50484;BME280;36409;52.168;20.878;2023-03-01T08:51:57;101638.98;;;7.14;55.93
50484;BME280;36409;52.168;20.878;2023-03-01T08:54:26;101661.48;;;6.73;55.60
50484;BME280;36409;52.168;20.878;2023-03-01T08:56:56;101654.49;;;6.32;55.93
50484;BME280;36409;52.168;20.878;2023-03-01T08:59:27;101657.58;;;6.16;56.32
50484;BME280;36409;52.168;20.878;2023-03-01T09:01:58;101657.06;;;5.97;56.18
50484;BME280;36409;52.168;20.878;2023-03-01T09:04:27;101661.88;;;5.82;56.46
50484;BME280;36409;52.168;20.878;2023-03-01T09:06:58;101661.78;;;5.79;56.91
50484;BME280;36409;52.168;20.878;2023-03-01T09:09:27;101650.55;;;5.78;56.84
50484;BME280;36409;52.168;20.878;2023-03-01T09:11:57;101660.11;;;5.81;57.10
50484;BME280;36409;52.168;20.878;2023-03-01T09:14:26;101657.52;;;5.81;56.79
50484;BME280;36409;52.168;20.878;2023-03-01T09:16:57;101652.25;;;5.78;56.23
50484;BME280;36409;52.168;20.878;2023-03-01T09:19:26;101663.02;;;6.63;55.16
50484;BME280;36409;52.168;20.878;2023-03-01T09:21:56;101657.61;;;8.37;53.91
50484;BME280;36409;52.168;20.878;2023-03-01T09:24:26;101643.47;;;9.50;52.72
50484;BME280;36409;52.168;20.878;2023-03-01T09:26:57;101640.71;;;10.33;50.96
50484;BME280;36409;52.168;20.878;2023-03-01T09:29:26;101645.59;;;11.32;51.57
50484;BME280;36409;52.168;20.878;2023-03-01T09:31:55;101634.38;;;12.16;49.72
50484;BME280;36409;52.168;20.878;2023-03-01T09:34:25;101625.42;;;13.09;50.27
50484;BME280;36409;52.168;20.878;2023-03-01T09:36:55;101624.20;;;13.69;49.90
50484;BME280;36409;52.168;20.878;2023-03-01T09:39:26;101622.65;;;13.38;49.44
50484;BME280;36409;52.168;20.878;2023-03-01T09:41:59;101630.74;;;12.86;49.34
50484;BME280;36409;52.168;20.878;2023-03-01T09:44:35;101623.91;;;12.24;49.71
50484;BME280;36409;52.168;20.878;2023-03-01T09:47:08;101620.41;;;11.85;49.24
50484;BME280;36409;52.168;20.878;2023-03-01T09:49:42;101614.35;;;11.98;49.56
50484;BME280;36409;52.168;20.878;2023-03-01T09:52:25;101613.35;;;12.66;49.67
50484;BME280;36409;52.168;20.878;2023-03-01T09:55:05;101606.26;;;12.97;49.02
50484;BME280;36409;52.168;20.878;2023-03-01T09:57:41;101602.53;;;13.39;48.51
50484;BME280;36409;52.168;20.878;2023-03-01T10:00:29;101601.42;;;13.75;48.54
50484;BME280;36409;52.168;20.878;2023-03-01T10:03:06;101601.80;;;14.30;48.08
50484;BME280;36409;52.168;20.878;2023-03-01T10:05:50;101590.16;;;14.58;48.16
50484;BME280;36409;52.168;20.878;2023-03-01T10:08:33;101589.35;;;14.51;48.77
50484;BME280;36409;52.168;20.878;2023-03-01T10:11:12;101593.07;;;14.30;49.57
50484;BME280;36409;52.168;20.878;2023-03-01T10:13:55;101586.36;;;14.01;50.57
50484;BME280;36409;52.168;20.878;2023-03-01T10:16:32;101582.36;;;13.52;50.86
50484;BME280;36409;52.168;20.878;2023-03-01T10:19:09;101576.48;;;13.06;51.14
50484;BME280;36409;52.168;20.878;2023-03-01T10:21:44;101569.67;;;12.73;52.42
50484;BME280;36409;52.168;20.878;2023-03-01T10:24:16;101561.06;;;12.40;52.32
50484;BME280;36409;52.168;20.878;2023-03-01T10:26:55;101568.97;;;12.07;52.44
50484;BME280;36409;52.168;20.878;2023-03-01T10:29:30;101568.95;;;11.65;52.40
50484;BME280;36409;52.168;20.878;2023-03-01T10:32:01;101568.95;;;11.50;53.45
50484;BME280;36409;52.168;20.878;2023-03-01T10:34:36;101561.94;;;11.28;53.66
50484;BME280;36409;52.168;20.878;2023-03-01T10:37:13;101564.53;;;11.08;52.81
50484;BME280;36409;52.168;20.878;2023-03-01T10:40:00;101569.67;;;10.90;52.58
50484;BME280;36409;52.168;20.878;2023-03-01T10:42:45;101565.21;;;10.64;52.41
50484;BME280;36409;52.168;20.878;2023-03-01T10:45:23;101562.56;;;10.53;53.54
50484;BME280;36409;52.168;20.878;2023-03-01T10:48:08;101560.78;;;10.43;53.26
50484;BME280;36409;52.168;20.878;2023-03-01T10:50:43;101566.75;;;10.29;53.61
50484;BME280;36409;52.168;20.878;2023-03-01T10:53:28;101562.34;;;10.19;53.75
50484;BME280;36409;52.168;20.878;2023-03-01T10:56:05;101563.23;;;10.21;53.10
50484;BME280;36409;52.168;20.878;2023-03-01T10:58:36;101557.15;;;10.22;53.59
50484;BME280;36409;52.168;20.878;2023-03-01T11:01:26;101557.98;;;10.19;53.34
50484;BME280;36409;52.168;20.878;2023-03-01T11:04:12;101556.18;;;10.06;53.51
50484;BME280;36409;52.168;20.878;2023-03-01T11:06:42;101551.77;;;9.99;53.71
50484;BME280;36409;52.168;20.878;2023-03-01T11:09:16;101556.91;;;9.89;52.92
50484;BME280;36409;52.168;20.878;2023-03-01T11:11:47;101550.71;;;9.72;53.20
50484;BME280;36409;52.168;20.878;2023-03-01T11:14:22;101556.71;;;9.62;53.24
50484;BME280;36409;52.168;20.878;2023-03-01T11:17:03;101555.78;;;9.55;53.35
50484;BME280;36409;52.168;20.878;2023-03-01T11:19:34;101555.70;;;9.47;54.00
50484;BME280;36409;52.168;20.878;2023-03-01T11:22:07;101548.73;;;9.45;53.52
50484;BME280;36409;52.168;20.878;2023-03-01T11:24:43;101546.91;;;9.37;53.02
50484;BME280;36409;52.168;20.878;2023-03-01T11:27:18;101532.95;;;9.29;53.18
50484;BME280;36409;52.168;20.878;2023-03-01T11:29:54;101539.82;;;9.21;53.95
50484;BME280;36409;52.168;20.878;2023-03-01T11:32:34;101533.63;;;9.11;53.50
50484;BME280;36409;52.168;20.878;2023-03-01T11:35:13;101527.44;;;8.98;53.83
50484;BME280;36409;52.168;20.878;2023-03-01T11:37:50;101528.00;;;8.74;53.70
50484;BME280;36409;52.168;20.878;2023-03-01T11:40:29;101524.54;;;8.72;53.74
50484;BME280;36409;52.168;20.878;2023-03-01T11:43:11;101526.30;;;8.76;53.89
50484;BME280;36409;52.168;20.878;2023-03-01T11:45:54;101528.10;;;8.81;53.68
50484;BME280;36409;52.168;20.878;2023-03-01T11:48:46;101516.73;;;8.73;54.28
50484;BME280;36409;52.168;20.878;2023-03-01T11:51:23;101524.34;;;8.58;53.67
50484;BME280;36409;52.168;20.878;2023-03-01T11:54:16;101529.18;;;8.31;53.65
50484;BME280;36409;52.168;20.878;2023-03-01T11:56:55;101528.22;;;8.25;54.40
50484;BME280;36409;52.168;20.878;2023-03-01T11:59:57;101530.88;;;8.28;54.16
50484;BME280;36409;52.168;20.878;2023-03-01T12:03:01;101533.54;;;8.34;54.28
50484;BME280;36409;52.168;20.878;2023-03-01T12:08:42;101527.53;;;8.37;54.39
50484;BME280;36409;52.168;20.878;2023-03-01T12:11:23;101521.37;;;8.31;54.45
50484;BME280;36409;52.168;20.878;2023-03-01T12:14:10;101523.86;;;8.24;54.66
50484;BME280;36409;52.168;20.878;2023-03-01T12:20:17;101525.66;;;8.26;54.81
50484;BME280;36409;52.168;20.878;2023-03-01T12:23:05;101524.77;;;8.26;55.30
50484;BME280;36409;52.168;20.878;2023-03-01T12:25:55;101516.95;;;8.24;55.06
50484;BME280;36409;52.168;20.878;2023-03-01T12:28:48;101533.41;;;8.23;54.94
50484;BME280;36409;52.168;20.878;2023-03-01T12:37:15;101515.75;;;8.00;54.68
50484;BME280;36409;52.168;20.878;2023-03-01T12:40:10;101512.17;;;7.92;54.56
50484;BME280;36409;52.168;20.878;2023-03-01T12:42:51;101511.22;;;7.87;55.46
50484;BME280;36409;52.168;20.878;2023-03-01T12:45:43;101513.73;;;7.81;55.25
50484;BME280;36409;52.168;20.878;2023-03-01T12:48:27;101511.01;;;7.73;55.04
50484;BME280;36409;52.168;20.878;2023-03-01T12:51:04;101502.22;;;7.65;55.13
50484;BME280;36409;52.168;20.878;2023-03-01T12:53:40;101503.98;;;7.67;55.40
50484;BME280;36409;52.168;20.878;2023-03-01T12:56:12;101496.00;;;7.56;55.25
50484;BME280;36409;52.168;20.878;2023-03-01T12:58:53;101501.07;;;7.49;55.20
50484;BME280;36409;52.168;20.878;2023-03-01T13:01:39;101497.39;;;7.34;55.40
50484;BME280;36409;52.168;20.878;2023-03-01T13:04:20;101494.73;;;7.31;56.13
50484;BME280;36409;52.168;20.878;2023-03-01T13:07:13;101494.79;;;7.34;55.71
50484;BME280;36409;52.168;20.878;2023-03-01T13:09:51;101497.41;;;7.36;55.94
50484;BME280;36409;52.168;20.878;2023-03-01T13:12:50;101489.46;;;7.26;56.19
50484;BME280;36409;52.168;20.878;2023-03-01T13:15:35;101492.82;;;7.21;55.89
50484;BME280;36409;52.168;20.878;2023-03-01T13:18:29;101491.84;;;7.14;56.34
50484;BME280;36409;52.168;20.878;2023-03-01T13:21:02;101487.48;;;7.13;56.25
50484;BME280;36409;52.168;20.878;2023-03-01T13:23:34;101484.81;;;7.08;56.31
50484;BME280;36409;52.168;20.878;2023-03-01T13:26:08;101487.31;;;7.02;55.99
50484;BME280;36409;52.168;20.878;2023-03-01T13:32:03;101479.98;;;6.81;56.30